Time;durP1;ratioP1;P1;durP2;ratioP2;P2;SDS_P1;SDS_P2;PMS_P1;PMS_P2;Temp;Humidity;BMP_temperature;BMP_pressure;BME280_temperature;BME280_humidity;BME280_pressure;Samples;Min_cycle;Max_cycle;Signal;HPM_P1;HPM_P2
2024/04/16 00:00:33;;;;;;;;;;;7.00;99.90;;;;;;2159390;27;20378;-81
2024/04/16 00:01:34;;;;;;;;;;;7.00;99.90;;;;;;2160375;27;19932;-81
2024/04/16 00:02:34;;;;;;;;;;;7.00;99.90;;;;;;2156703;27;20013;-82
2024/04/16 00:03:35;;;;;;;;;;;7.00;99.90;;;;;;2154773;27;19932;-79
2024/04/16 00:04:35;;;;;;;;;;;7.00;99.90;;;;;;2156261;27;20340;-81
2024/04/16 00:05:36;;;;;;;;;;;7.00;99.90;;;;;;2166645;27;19931;-82
2024/04/16 00:06:36;;;;;;;;;;;7.00;99.90;;;;;;2159971;27;19972;-80
2024/04/16 00:07:37;;;;;;;;;;;6.90;99.90;;;;;;2168235;27;19931;-82
2024/04/16 00:08:37;;;;;;;;;;;7.00;99.90;;;;;;2145821;27;20013;-82
2024/04/16 00:09:38;;;;;;;;;;;7.00;99.90;;;;;;2149483;27;19947;-82
2024/04/16 00:10:38;;;;;;;;;;;7.00;99.90;;;;;;2173353;27;19963;-80
2024/04/16 00:11:39;;;;;;;;;;;7.00;99.90;;;;;;2159643;27;19931;-82
2024/04/16 00:12:50;;;;;;;;;;;7.00;99.90;;;;;;2152460;27;19940;-81
2024/04/16 00:13:53;;;;;;;;;;;7.00;99.90;;;;;;2151448;27;19939;-81
2024/04/16 00:15:04;;;;;;;;;;;7.10;99.90;;;;;;2162548;27;19932;-81
2024/04/16 00:16:05;;;;;;;;;;;7.10;99.90;;;;;;2166817;27;20235;-83
2024/04/16 00:17:06;;;;;;;;;;;7.10;99.90;;;;;;2162058;27;19932;-82
2024/04/16 00:18:07;;;;;;;;;;;7.10;99.90;;;;;;2173006;27;20318;-82
2024/04/16 00:19:07;;;;;;;;;;;7.10;99.90;;;;;;2156900;27;20003;-81
2024/04/16 00:20:08;;;;;;;;;;;7.10;99.90;;;;;;2147847;27;19932;-82
2024/04/16 00:21:08;;;;;;;;;;;7.10;99.90;;;;;;2147942;27;19932;-80
2024/04/16 00:22:08;;;;;;;;;;;7.10;99.90;;;;;;2155149;27;19939;-82
2024/04/16 00:23:09;;;;;;;;;;;7.10;99.90;;;;;;2148811;27;19932;-84
2024/04/16 00:24:09;;;;;;;;;;;7.10;99.90;;;;;;2158912;27;19947;-81
2024/04/16 00:25:10;;;;;;;;;;;7.20;99.90;;;;;;2163881;26;19939;-82
2024/04/16 00:26:11;;;;;;;;;;;7.10;99.90;;;;;;2162413;27;19931;-83
2024/04/16 00:27:11;;;;;;;;;;;7.10;99.90;;;;;;2169754;27;20499;-83
2024/04/16 00:28:12;;;;;;;;;;;7.10;99.90;;;;;;2157036;27;19940;-81
2024/04/16 00:29:12;;;;;;;;;;;7.10;99.90;;;;;;2174029;27;20038;-82
2024/04/16 00:30:13;;;;;;;;;;;7.10;99.90;;;;;;2170426;27;20358;-82
2024/04/16 00:31:13;;;;;;;;;;;7.10;99.90;;;;;;2156653;27;19939;-82
2024/04/16 00:32:14;;;;;;;;;;;7.10;99.90;;;;;;2156817;27;20006;-84
2024/04/16 00:33:15;;;;;;;;;;;7.20;99.90;;;;;;2164339;27;19962;-82
2024/04/16 00:34:15;;;;;;;;;;;7.20;99.90;;;;;;2164408;27;19938;-83
2024/04/16 00:35:16;;;;;;;;;;;7.10;99.90;;;;;;2157944;27;20307;-83
2024/04/16 00:36:16;;;;;;;;;;;7.20;99.90;;;;;;2161724;27;19936;-82
2024/04/16 00:37:17;;;;;;;;;;;7.20;99.90;;;;;;2160500;27;19956;-83
2024/04/16 00:38:17;;;;;;;;;;;7.20;99.90;;;;;;2155890;27;19962;-82
2024/04/16 00:39:18;;;;;;;;;;;7.20;99.90;;;;;;2167241;27;19935;-83
2024/04/16 00:40:18;;;;;;;;;;;7.20;99.90;;;;;;2175380;27;19938;-82
2024/04/16 00:41:19;;;;;;;;;;;7.20;99.90;;;;;;2164916;27;19931;-82
2024/04/16 00:42:19;;;;;;;;;;;7.20;99.90;;;;;;2157956;27;19936;-82
2024/04/16 00:43:20;;;;;;;;;;;7.20;99.90;;;;;;2160295;27;19935;-84
2024/04/16 00:44:22;;;;;;;;;;;7.20;99.90;;;;;;2162944;27;20264;-82
2024/04/16 00:45:23;;;;;;;;;;;7.20;99.90;;;;;;2162548;27;20911;-81
2024/04/16 00:46:23;;;;;;;;;;;7.20;99.90;;;;;;2168128;27;19975;-81
2024/04/16 00:47:24;;;;;;;;;;;7.20;99.90;;;;;;2168408;27;20010;-82
2024/04/16 00:48:25;;;;;;;;;;;7.20;99.90;;;;;;2175630;27;19935;-83
2024/04/16 00:49:25;;;;;;;;;;;7.20;99.90;;;;;;2161257;27;19932;-82
2024/04/16 00:50:26;;;;;;;;;;;7.20;99.90;;;;;;2162061;27;20092;-83
2024/04/16 00:51:26;;;;;;;;;;;7.20;99.90;;;;;;2154054;27;19932;-82
2024/04/16 00:52:27;;;;;;;;;;;7.20;99.90;;;;;;2150756;27;19938;-82
2024/04/16 00:53:27;;;;;;;;;;;7.20;99.90;;;;;;2156294;27;19932;-84
2024/04/16 00:54:28;;;;;;;;;;;7.20;99.90;;;;;;2160911;27;19938;-83
2024/04/16 00:55:29;;;;;;;;;;;7.20;99.90;;;;;;2156449;27;19943;-81
2024/04/16 00:56:30;;;;;;;;;;;7.20;99.90;;;;;;2168519;27;20314;-84
2024/04/16 00:57:31;;;;;;;;;;;7.20;99.90;;;;;;2167361;27;19935;-82
2024/04/16 00:58:32;;;;;;;;;;;7.20;99.90;;;;;;2168778;27;19939;-82
2024/04/16 00:59:34;;;;;;;;;;;7.10;99.90;;;;;;2169158;27;19934;-81
2024/04/16 01:00:34;;;;;;;;;;;7.20;99.90;;;;;;2173802;27;19938;-78
2024/04/16 01:01:38;;;;;;;;;;;7.20;99.90;;;;;;2155057;27;19939;-81
2024/04/16 01:02:39;;;;;;;;;;;7.20;99.90;;;;;;2160138;27;19931;-81
2024/04/16 01:03:43;;;;;;;;;;;7.20;99.90;;;;;;2156466;27;19931;-81
2024/04/16 01:04:43;;;;;;;;;;;7.20;99.90;;;;;;2151747;27;20044;-81
2024/04/16 01:05:44;;;;;;;;;;;7.20;99.90;;;;;;2156469;27;19983;-80
2024/04/16 01:06:44;;;;;;;;;;;7.20;99.90;;;;;;2156140;27;19931;-80
2024/04/16 01:07:45;;;;;;;;;;;7.20;99.90;;;;;;2146762;27;19977;-80
2024/04/16 01:08:45;;;;;;;;;;;7.20;99.90;;;;;;2158373;27;20282;-80
2024/04/16 01:09:46;;;;;;;;;;;7.20;99.90;;;;;;2157793;27;19932;-83
2024/04/16 01:10:46;;;;;;;;;;;7.20;99.90;;;;;;2155113;27;19943;-81
2024/04/16 01:11:47;;;;;;;;;;;7.20;99.90;;;;;;2167095;27;19931;-83
2024/04/16 01:12:47;;;;;;;;;;;7.20;99.90;;;;;;2167256;27;19931;-81
2024/04/16 01:13:47;;;;;;;;;;;7.30;99.90;;;;;;2154442;27;19932;-81
2024/04/16 01:14:48;;;;;;;;;;;7.30;99.90;;;;;;2155366;27;19939;-80
2024/04/16 01:15:48;;;;;;;;;;;7.40;99.90;;;;;;2165681;27;20255;-80
2024/04/16 01:16:49;;;;;;;;;;;7.30;99.90;;;;;;2167673;27;19932;-81
2024/04/16 01:17:49;;;;;;;;;;;7.30;99.90;;;;;;2164441;27;20406;-81
2024/04/16 01:18:50;;;;;;;;;;;7.30;99.90;;;;;;2156280;27;19932;-81
2024/04/16 01:19:50;;;;;;;;;;;7.30;99.90;;;;;;2174619;27;19938;-81
2024/04/16 01:20:51;;;;;;;;;;;7.30;99.90;;;;;;2155476;27;19943;-82
2024/04/16 01:21:51;;;;;;;;;;;7.30;99.90;;;;;;2151598;27;20003;-82
2024/04/16 01:22:52;;;;;;;;;;;7.20;99.90;;;;;;2150215;27;19988;-83
2024/04/16 01:23:52;;;;;;;;;;;7.20;99.90;;;;;;2168759;27;19939;-81
2024/04/16 01:24:53;;;;;;;;;;;7.20;99.90;;;;;;2161049;27;20386;-81
2024/04/16 01:25:53;;;;;;;;;;;7.20;99.90;;;;;;2159478;27;19997;-82
2024/04/16 01:26:54;;;;;;;;;;;7.20;99.90;;;;;;2155926;27;19932;-80
2024/04/16 01:27:54;;;;;;;;;;;7.20;99.90;;;;;;2158221;27;19932;-80
2024/04/16 01:28:54;;;;;;;;;;;7.30;99.90;;;;;;2159187;27;19936;-80
2024/04/16 01:29:55;;;;;;;;;;;7.30;99.90;;;;;;2165121;27;20275;-81
2024/04/16 01:30:56;;;;;;;;;;;7.20;99.90;;;;;;2165577;27;19939;-80
2024/04/16 01:31:56;;;;;;;;;;;7.20;99.90;;;;;;2159520;27;19932;-81
2024/04/16 01:32:57;;;;;;;;;;;7.20;99.90;;;;;;2157765;27;19931;-82
2024/04/16 01:33:57;;;;;;;;;;;7.20;99.90;;;;;;2160692;27;19935;-81
2024/04/16 01:34:57;;;;;;;;;;;7.20;99.90;;;;;;2166749;26;19963;-81
2024/04/16 01:35:58;;;;;;;;;;;7.10;99.90;;;;;;2158427;27;20342;-81
2024/04/16 01:36:59;;;;;;;;;;;7.20;99.90;;;;;;2175499;27;19931;-81
2024/04/16 01:37:59;;;;;;;;;;;7.10;99.90;;;;;;2167655;27;20274;-81
2024/04/16 01:39:00;;;;;;;;;;;7.00;99.90;;;;;;2168199;27;19971;-82
2024/04/16 01:40:00;;;;;;;;;;;7.00;99.90;;;;;;2172173;27;20464;-75
2024/04/16 01:41:01;;;;;;;;;;;7.00;99.90;;;;;;2154628;27;19943;-75
2024/04/16 01:42:02;;;;;;;;;;;6.90;99.90;;;;;;2156854;27;19932;-73
2024/04/16 01:43:03;;;;;;;;;;;6.90;99.90;;;;;;2158776;27;19940;-74
2024/04/16 01:44:03;;;;;;;;;;;6.80;99.90;;;;;;2154719;27;19939;-74
2024/04/16 01:45:04;;;;;;;;;;;6.80;99.90;;;;;;2156397;27;20292;-73
2024/04/16 01:46:04;;;;;;;;;;;6.80;99.90;;;;;;2158812;27;19979;-74
2024/04/16 01:47:05;;;;;;;;;;;6.80;99.90;;;;;;2160555;27;19939;-74
2024/04/16 01:48:05;;;;;;;;;;;6.70;99.90;;;;;;2154577;27;20375;-73
2024/04/16 01:49:06;;;;;;;;;;;6.70;99.90;;;;;;2151794;27;19943;-75
2024/04/16 01:50:06;;;;;;;;;;;6.80;99.90;;;;;;2168953;27;19942;-75
2024/04/16 01:51:07;;;;;;;;;;;6.70;99.90;;;;;;2159542;27;20352;-74
2024/04/16 01:52:07;;;;;;;;;;;6.70;99.90;;;;;;2160798;27;20488;-74
2024/04/16 01:53:08;;;;;;;;;;;6.80;99.90;;;;;;2161558;27;19939;-74
2024/04/16 01:54:08;;;;;;;;;;;6.80;99.90;;;;;;2154996;27;19951;-74
2024/04/16 01:55:09;;;;;;;;;;;6.80;99.90;;;;;;2159370;27;19942;-73
2024/04/16 01:56:09;;;;;;;;;;;6.90;99.90;;;;;;2161174;27;19939;-75
2024/04/16 01:57:10;;;;;;;;;;;6.90;99.90;;;;;;2155234;27;19939;-74
2024/04/16 01:58:10;;;;;;;;;;;6.90;99.90;;;;;;2156301;27;19992;-74
2024/04/16 01:59:11;;;;;;;;;;;6.90;99.90;;;;;;2159610;27;19938;-73
2024/04/16 02:00:11;;;;;;;;;;;7.00;99.90;;;;;;2154600;27;19940;-74
2024/04/16 02:01:12;;;;;;;;;;;6.90;99.90;;;;;;2156117;27;20371;-74
2024/04/16 02:02:12;;;;;;;;;;;7.00;99.90;;;;;;2160212;27;20402;-74
2024/04/16 02:03:13;;;;;;;;;;;7.00;99.90;;;;;;2155109;27;19938;-74
2024/04/16 02:04:13;;;;;;;;;;;6.90;99.90;;;;;;2155548;27;19939;-75
2024/04/16 02:05:14;;;;;;;;;;;7.00;99.90;;;;;;2152515;27;19943;-72
2024/04/16 02:06:14;;;;;;;;;;;6.90;99.90;;;;;;2154051;27;20274;-74
2024/04/16 02:07:15;;;;;;;;;;;6.90;99.90;;;;;;2154843;27;19936;-74
2024/04/16 02:08:15;;;;;;;;;;;6.90;99.90;;;;;;2160598;27;20350;-75
2024/04/16 02:09:15;;;;;;;;;;;6.90;99.90;;;;;;2146708;27;20066;-74
2024/04/16 02:10:16;;;;;;;;;;;6.90;99.90;;;;;;2151788;27;19943;-74
2024/04/16 02:11:17;;;;;;;;;;;6.90;99.90;;;;;;2155891;27;20023;-74
2024/04/16 02:12:17;;;;;;;;;;;6.90;99.90;;;;;;2173847;27;19942;-75
2024/04/16 02:13:17;;;;;;;;;;;6.90;99.90;;;;;;2173741;27;20002;-73
2024/04/16 02:14:18;;;;;;;;;;;6.90;99.90;;;;;;2174058;27;20169;-74
2024/04/16 02:15:18;;;;;;;;;;;6.90;99.90;;;;;;2172893;27;20398;-74
2024/04/16 02:16:19;;;;;;;;;;;6.90;99.90;;;;;;2167331;27;20374;-74
2024/04/16 02:17:21;;;;;;;;;;;6.90;99.90;;;;;;2155283;27;19939;-73
2024/04/16 02:18:22;;;;;;;;;;;6.90;99.90;;;;;;2161070;27;19943;-74
2024/04/16 02:19:22;;;;;;;;;;;6.90;99.90;;;;;;2152373;27;19972;-73
2024/04/16 02:20:23;;;;;;;;;;;6.90;99.90;;;;;;2146838;27;19987;-73
2024/04/16 02:21:23;;;;;;;;;;;7.00;99.90;;;;;;2166952;27;19944;-73
2024/04/16 02:22:24;;;;;;;;;;;7.00;99.90;;;;;;2160281;27;19931;-73
2024/04/16 02:23:24;;;;;;;;;;;7.00;99.90;;;;;;2160989;27;20242;-73
2024/04/16 02:24:25;;;;;;;;;;;6.90;99.90;;;;;;2173711;27;19938;-73
2024/04/16 02:25:26;;;;;;;;;;;6.90;99.90;;;;;;2161008;27;20266;-73
2024/04/16 02:26:26;;;;;;;;;;;6.90;99.90;;;;;;2153530;27;20359;-74
2024/04/16 02:27:26;;;;;;;;;;;7.00;99.90;;;;;;2159588;27;20023;-74
2024/04/16 02:28:27;;;;;;;;;;;7.00;99.90;;;;;;2163703;27;19931;-74
2024/04/16 02:29:28;;;;;;;;;;;7.00;99.90;;;;;;2147750;27;19933;-75
2024/04/16 02:30:29;;;;;;;;;;;6.90;99.90;;;;;;2146851;27;19943;-72
2024/04/16 02:31:30;;;;;;;;;;;6.90;99.90;;;;;;2157490;27;19972;-75
2024/04/16 02:32:31;;;;;;;;;;;7.00;99.90;;;;;;2146922;27;20375;-74
2024/04/16 02:33:32;;;;;;;;;;;7.00;99.90;;;;;;2158982;27;20059;-74
2024/04/16 02:34:32;;;;;;;;;;;7.00;99.90;;;;;;2153186;27;19931;-73
2024/04/16 02:35:32;;;;;;;;;;;7.00;99.90;;;;;;2154424;27;19975;-75
2024/04/16 02:36:35;;;;;;;;;;;7.00;99.90;;;;;;2164782;27;20378;-74
2024/04/16 02:37:35;;;;;;;;;;;7.00;99.90;;;;;;2155772;27;20004;-73
2024/04/16 02:38:36;;;;;;;;;;;7.00;99.90;;;;;;2160273;27;20326;-73
2024/04/16 02:39:36;;;;;;;;;;;7.00;99.90;;;;;;2157775;27;19938;-73
2024/04/16 02:40:38;;;;;;;;;;;7.00;99.90;;;;;;2161374;26;21255;-81
2024/04/16 02:41:39;;;;;;;;;;;7.00;99.90;;;;;;2160710;27;19942;-81
2024/04/16 02:42:39;;;;;;;;;;;7.00;99.90;;;;;;2165517;27;19935;-80
2024/04/16 02:43:40;;;;;;;;;;;7.00;99.90;;;;;;2157528;27;19989;-83
2024/04/16 02:44:40;;;;;;;;;;;7.10;99.90;;;;;;2156907;27;20228;-82
2024/04/16 02:45:41;;;;;;;;;;;7.10;99.90;;;;;;2158947;27;20086;-82
2024/04/16 02:46:41;;;;;;;;;;;7.00;99.90;;;;;;2150085;27;19962;-79
2024/04/16 02:47:42;;;;;;;;;;;7.00;99.90;;;;;;2157437;27;19944;-81
2024/04/16 02:48:42;;;;;;;;;;;7.00;99.90;;;;;;2149919;27;19932;-81
2024/04/16 02:49:43;;;;;;;;;;;7.00;99.90;;;;;;2151554;27;19939;-82
2024/04/16 02:50:46;;;;;;;;;;;7.00;99.90;;;;;;2165345;27;19932;-82
2024/04/16 02:51:46;;;;;;;;;;;6.90;99.90;;;;;;2159388;27;19936;-83
2024/04/16 02:52:47;;;;;;;;;;;6.90;99.90;;;;;;2173842;27;19935;-83
2024/04/16 02:53:47;;;;;;;;;;;6.90;99.90;;;;;;2174677;27;20429;-81
2024/04/16 02:54:48;;;;;;;;;;;6.90;99.90;;;;;;2154502;27;19936;-80
2024/04/16 02:55:49;;;;;;;;;;;6.90;99.90;;;;;;2167424;27;19931;-81
2024/04/16 02:56:49;;;;;;;;;;;6.90;99.90;;;;;;2157493;27;19932;-80
2024/04/16 02:57:49;;;;;;;;;;;6.80;99.90;;;;;;2171838;27;19936;-81
2024/04/16 02:58:50;;;;;;;;;;;6.90;99.90;;;;;;2171524;27;19942;-80
2024/04/16 02:59:51;;;;;;;;;;;6.80;99.90;;;;;;2172633;27;20321;-80
2024/04/16 03:00:51;;;;;;;;;;;6.80;99.90;;;;;;2154046;27;19979;-79
2024/04/16 03:01:52;;;;;;;;;;;6.80;99.90;;;;;;2155274;27;21010;-81
2024/04/16 03:02:52;;;;;;;;;;;6.70;99.90;;;;;;2148107;27;21103;-82
2024/04/16 03:03:53;;;;;;;;;;;6.70;99.90;;;;;;2159246;27;20105;-79
2024/04/16 03:04:54;;;;;;;;;;;6.70;99.90;;;;;;2160103;27;19939;-82
2024/04/16 03:05:55;;;;;;;;;;;6.70;99.90;;;;;;2154459;27;20093;-78
2024/04/16 03:06:55;;;;;;;;;;;6.70;99.90;;;;;;2165178;27;19972;-80
2024/04/16 03:07:56;;;;;;;;;;;6.70;99.90;;;;;;2163829;27;19932;-81
2024/04/16 03:08:56;;;;;;;;;;;6.70;99.90;;;;;;2154792;27;19953;-81
2024/04/16 03:09:57;;;;;;;;;;;6.70;99.90;;;;;;2155116;27;20385;-81
2024/04/16 03:11:01;;;;;;;;;;;6.70;99.90;;;;;;2152202;27;19950;-80
2024/04/16 03:12:01;;;;;;;;;;;6.70;99.90;;;;;;2148157;27;20264;-82
2024/04/16 03:13:02;;;;;;;;;;;6.70;99.90;;;;;;2153420;27;20010;-82
2024/04/16 03:14:02;;;;;;;;;;;6.70;99.90;;;;;;2169662;27;20291;-81
2024/04/16 03:15:03;;;;;;;;;;;6.80;99.90;;;;;;2173065;27;19974;-81
2024/04/16 03:16:06;;;;;;;;;;;6.80;99.90;;;;;;2154336;27;20413;-82
2024/04/16 03:17:07;;;;;;;;;;;6.80;99.90;;;;;;2154361;27;19940;-81
2024/04/16 03:18:08;;;;;;;;;;;6.90;99.90;;;;;;2167821;27;19931;-79
2024/04/16 03:19:08;;;;;;;;;;;6.90;99.90;;;;;;2161473;27;20230;-81
2024/04/16 03:20:09;;;;;;;;;;;6.90;99.90;;;;;;2161454;27;19949;-82
2024/04/16 03:21:09;;;;;;;;;;;6.90;99.90;;;;;;2161415;27;20375;-81
2024/04/16 03:22:10;;;;;;;;;;;6.90;99.90;;;;;;2155764;27;19932;-80
2024/04/16 03:23:10;;;;;;;;;;;6.90;99.90;;;;;;2154962;27;19939;-81
2024/04/16 03:24:11;;;;;;;;;;;6.90;99.90;;;;;;2170424;27;20046;-82
2024/04/16 03:25:12;;;;;;;;;;;6.90;99.90;;;;;;2167332;27;19931;-83
2024/04/16 03:26:13;;;;;;;;;;;6.90;99.90;;;;;;2174685;27;20035;-80
2024/04/16 03:27:14;;;;;;;;;;;6.90;99.90;;;;;;2168087;27;20382;-79
2024/04/16 03:28:14;;;;;;;;;;;6.90;99.90;;;;;;2154869;27;19939;-81
2024/04/16 03:29:15;;;;;;;;;;;7.00;99.90;;;;;;2162572;27;19951;-81
2024/04/16 03:30:15;;;;;;;;;;;7.00;99.90;;;;;;2158972;27;19931;-80
2024/04/16 03:31:16;;;;;;;;;;;7.00;99.90;;;;;;2175107;27;20434;-80
2024/04/16 03:32:17;;;;;;;;;;;7.10;99.90;;;;;;2178521;27;19931;-81
2024/04/16 03:33:17;;;;;;;;;;;7.10;99.90;;;;;;2158773;27;20527;-82
2024/04/16 03:34:17;;;;;;;;;;;7.10;99.90;;;;;;2159318;27;19931;-81
2024/04/16 03:35:18;;;;;;;;;;;7.10;99.90;;;;;;2155790;27;19938;-80
2024/04/16 03:36:18;;;;;;;;;;;7.10;99.90;;;;;;2160839;27;19932;-79
2024/04/16 03:37:19;;;;;;;;;;;7.10;99.90;;;;;;2160956;27;19939;-81
2024/04/16 03:38:20;;;;;;;;;;;7.10;99.90;;;;;;2160401;27;19953;-80
2024/04/16 03:39:20;;;;;;;;;;;7.20;99.90;;;;;;2168843;27;20255;-80
2024/04/16 03:40:21;;;;;;;;;;;7.10;99.90;;;;;;2174736;27;20253;-81
2024/04/16 03:41:22;;;;;;;;;;;7.10;99.90;;;;;;2175225;27;19978;-80
2024/04/16 03:42:23;;;;;;;;;;;7.20;99.90;;;;;;2174423;27;20002;-81
2024/04/16 03:43:24;;;;;;;;;;;7.20;99.90;;;;;;2162566;27;19931;-79
2024/04/16 03:44:24;;;;;;;;;;;7.10;99.90;;;;;;2153722;27;19944;-80
2024/04/16 03:45:25;;;;;;;;;;;7.10;99.90;;;;;;2148504;27;19931;-80
2024/04/16 03:46:26;;;;;;;;;;;7.20;99.90;;;;;;2156666;27;20656;-80
2024/04/16 03:47:28;;;;;;;;;;;7.20;99.90;;;;;;2153244;27;20296;-81
2024/04/16 03:48:29;;;;;;;;;;;7.10;99.90;;;;;;2153067;27;20367;-79
2024/04/16 03:49:29;;;;;;;;;;;7.10;99.90;;;;;;2157586;27;19938;-80
2024/04/16 03:50:29;;;;;;;;;;;7.10;99.90;;;;;;2155670;27;20314;-81
2024/04/16 03:51:30;;;;;;;;;;;7.10;99.90;;;;;;2169838;27;19935;-81
2024/04/16 03:52:30;;;;;;;;;;;7.10;99.90;;;;;;2161454;27;19931;-80
2024/04/16 03:53:31;;;;;;;;;;;7.10;99.90;;;;;;2154255;27;19964;-80
2024/04/16 03:54:32;;;;;;;;;;;7.10;99.90;;;;;;2157544;27;19939;-82
2024/04/16 03:55:32;;;;;;;;;;;7.00;99.90;;;;;;2149600;27;19932;-80
2024/04/16 03:56:32;;;;;;;;;;;7.00;99.90;;;;;;2156627;27;20267;-81
2024/04/16 03:57:33;;;;;;;;;;;7.00;99.90;;;;;;2154152;27;19932;-82
2024/04/16 03:58:43;;;;;;;;;;;7.00;99.90;;;;;;2161085;27;20383;-80
2024/04/16 04:01:10;;;;;;;;;;;7.00;99.90;;;;;;2157440;27;19960;-80
2024/04/16 04:02:11;;;;;;;;;;;7.00;99.90;;;;;;2149842;27;20064;-81
2024/04/16 04:03:16;;;;;;;;;;;7.00;99.90;;;;;;2155842;27;19936;-80
2024/04/16 04:04:16;;;;;;;;;;;7.00;99.90;;;;;;2161100;27;19931;-81
2024/04/16 04:05:17;;;;;;;;;;;7.00;99.90;;;;;;2159953;27;19938;-82
2024/04/16 04:06:17;;;;;;;;;;;7.00;99.90;;;;;;2156143;27;19951;-80
2024/04/16 04:07:18;;;;;;;;;;;6.90;99.90;;;;;;2159617;27;19946;-81
2024/04/16 04:08:18;;;;;;;;;;;7.00;99.90;;;;;;2154101;27;19931;-80
2024/04/16 04:09:20;;;;;;;;;;;6.90;99.90;;;;;;2168235;27;19939;-81
2024/04/16 04:10:21;;;;;;;;;;;7.00;99.90;;;;;;2174736;27;19931;-81
2024/04/16 04:11:21;;;;;;;;;;;7.00;99.90;;;;;;2155829;27;19932;-82
2024/04/16 04:12:22;;;;;;;;;;;7.00;99.90;;;;;;2155641;27;20271;-80
2024/04/16 04:13:22;;;;;;;;;;;7.10;99.90;;;;;;2155828;27;19947;-80
2024/04/16 04:14:23;;;;;;;;;;;7.10;99.90;;;;;;2156745;27;19931;-83
2024/04/16 04:15:23;;;;;;;;;;;7.10;99.90;;;;;;2158129;27;19944;-83
2024/04/16 04:16:24;;;;;;;;;;;7.10;99.90;;;;;;2169583;27;19931;-82
2024/04/16 04:17:24;;;;;;;;;;;7.10;99.90;;;;;;2168925;27;19931;-83
2024/04/16 04:18:25;;;;;;;;;;;7.00;99.90;;;;;;2176262;27;19935;-82
2024/04/16 04:19:25;;;;;;;;;;;7.00;99.90;;;;;;2163905;27;19966;-82
2024/04/16 04:20:26;;;;;;;;;;;7.00;99.90;;;;;;2161569;27;19932;-81
2024/04/16 04:21:26;;;;;;;;;;;7.00;99.90;;;;;;2156591;27;20279;-81
2024/04/16 04:22:27;;;;;;;;;;;7.00;99.90;;;;;;2155719;27;20003;-81
2024/04/16 04:23:27;;;;;;;;;;;7.00;99.90;;;;;;2156416;27;19938;-84
2024/04/16 04:24:28;;;;;;;;;;;7.00;99.90;;;;;;2156193;27;19951;-76
2024/04/16 04:25:28;;;;;;;;;;;7.00;99.90;;;;;;2156886;27;19932;-81
2024/04/16 04:26:29;;;;;;;;;;;7.00;99.90;;;;;;2157041;27;19940;-83
2024/04/16 04:27:29;;;;;;;;;;;7.00;99.90;;;;;;2162219;27;19938;-82
2024/04/16 04:28:30;;;;;;;;;;;7.00;99.90;;;;;;2157210;27;19947;-83
2024/04/16 04:29:33;;;;;;;;;;;7.10;99.90;;;;;;2157186;27;19936;-81
2024/04/16 04:30:33;;;;;;;;;;;7.10;99.90;;;;;;2168301;27;19935;-81
2024/04/16 04:31:34;;;;;;;;;;;7.10;99.90;;;;;;2170488;27;20266;-81
2024/04/16 04:32:34;;;;;;;;;;;7.10;99.90;;;;;;2175599;27;20020;-82
2024/04/16 04:33:35;;;;;;;;;;;7.10;99.90;;;;;;2175437;27;20456;-81
2024/04/16 04:34:35;;;;;;;;;;;7.10;99.90;;;;;;2176163;27;19931;-82
2024/04/16 04:35:36;;;;;;;;;;;7.10;99.90;;;;;;2162982;27;20339;-83
2024/04/16 04:36:36;;;;;;;;;;;7.10;99.90;;;;;;2160599;27;19936;-84
2024/04/16 04:37:37;;;;;;;;;;;7.10;99.90;;;;;;2169228;27;20070;-82
2024/04/16 04:38:37;;;;;;;;;;;7.10;99.90;;;;;;2171741;27;19938;-80
2024/04/16 04:39:38;;;;;;;;;;;7.10;99.90;;;;;;2157646;27;20067;-84
2024/04/16 04:40:38;;;;;;;;;;;7.10;99.90;;;;;;2164329;27;20252;-85
2024/04/16 04:41:39;;;;;;;;;;;7.10;99.90;;;;;;2161003;27;19932;-83
2024/04/16 04:42:39;;;;;;;;;;;7.10;99.90;;;;;;2157635;27;20382;-84
2024/04/16 04:43:40;;;;;;;;;;;7.10;99.90;;;;;;2157437;27;19938;-83
2024/04/16 04:44:40;;;;;;;;;;;7.10;99.90;;;;;;2164466;27;19935;-84
2024/04/16 04:45:41;;;;;;;;;;;7.10;99.90;;;;;;2157327;27;19932;-83
2024/04/16 04:46:41;;;;;;;;;;;7.10;99.90;;;;;;2164303;27;20371;-84
2024/04/16 04:47:42;;;;;;;;;;;7.10;99.90;;;;;;2154345;27;20003;-85
2024/04/16 04:48:42;;;;;;;;;;;7.10;99.90;;;;;;2158470;27;19932;-84
2024/04/16 04:49:43;;;;;;;;;;;7.10;99.90;;;;;;2165310;27;19967;-83
2024/04/16 04:50:43;;;;;;;;;;;7.10;99.90;;;;;;2154728;27;19959;-86
2024/04/16 04:51:44;;;;;;;;;;;7.10;99.90;;;;;;2160551;27;19932;-86
2024/04/16 04:52:44;;;;;;;;;;;7.10;99.90;;;;;;2160777;27;19932;-85
2024/04/16 04:53:44;;;;;;;;;;;7.10;99.90;;;;;;2167782;27;19932;-83
2024/04/16 04:54:45;;;;;;;;;;;7.20;99.90;;;;;;2164472;27;20282;-71
2024/04/16 04:55:45;;;;;;;;;;;7.10;99.90;;;;;;2155057;27;19939;-83
2024/04/16 04:56:47;;;;;;;;;;;7.10;99.90;;;;;;2160778;27;19935;-76
2024/04/16 04:57:47;;;;;;;;;;;7.10;99.90;;;;;;2159879;27;20522;-73
2024/04/16 04:58:47;;;;;;;;;;;7.10;99.90;;;;;;2160942;27;19931;-72
2024/04/16 04:59:48;;;;;;;;;;;7.10;99.90;;;;;;2154486;27;20410;-72
2024/04/16 05:00:48;;;;;;;;;;;7.10;99.90;;;;;;2158580;27;19938;-74
2024/04/16 05:01:49;;;;;;;;;;;7.10;99.90;;;;;;2154243;27;19979;-75
2024/04/16 05:02:49;;;;;;;;;;;7.10;99.90;;;;;;2146384;27;19988;-73
2024/04/16 05:03:50;;;;;;;;;;;7.10;99.90;;;;;;2146437;27;19939;-76
2024/04/16 05:04:50;;;;;;;;;;;7.10;99.90;;;;;;2156754;27;20004;-73
2024/04/16 05:05:51;;;;;;;;;;;7.00;99.90;;;;;;2163442;27;20007;-73
2024/04/16 05:06:51;;;;;;;;;;;7.00;99.90;;;;;;2156873;27;19942;-72
2024/04/16 05:07:52;;;;;;;;;;;7.00;99.90;;;;;;2157556;27;20406;-72
2024/04/16 05:08:52;;;;;;;;;;;7.10;99.90;;;;;;2156898;27;19942;-72
2024/04/16 05:09:53;;;;;;;;;;;7.10;99.90;;;;;;2157130;27;20389;-72
2024/04/16 05:10:53;;;;;;;;;;;7.10;99.90;;;;;;2173225;27;20510;-73
2024/04/16 05:11:54;;;;;;;;;;;7.10;99.90;;;;;;2173061;27;20412;-74
2024/04/16 05:12:54;;;;;;;;;;;7.10;99.90;;;;;;2150468;27;20140;-73
2024/04/16 05:13:55;;;;;;;;;;;7.10;99.90;;;;;;2156319;27;19943;-74
2024/04/16 05:14:56;;;;;;;;;;;7.10;99.90;;;;;;2155706;27;19998;-74
2024/04/16 05:15:57;;;;;;;;;;;7.10;99.90;;;;;;2159716;27;19971;-74
2024/04/16 05:16:57;;;;;;;;;;;7.10;99.90;;;;;;2148579;27;19940;-73
2024/04/16 05:17:58;;;;;;;;;;;7.20;99.90;;;;;;2150455;27;20090;-74
2024/04/16 05:18:58;;;;;;;;;;;7.20;99.90;;;;;;2159755;27;20376;-73
2024/04/16 05:19:59;;;;;;;;;;;7.20;99.90;;;;;;2151887;27;19931;-73
2024/04/16 05:21:00;;;;;;;;;;;7.20;99.90;;;;;;2157370;27;19939;-73
2024/04/16 05:22:00;;;;;;;;;;;7.20;99.90;;;;;;2155078;27;19960;-73
2024/04/16 05:23:01;;;;;;;;;;;7.10;99.90;;;;;;2153832;27;19940;-72
2024/04/16 05:24:02;;;;;;;;;;;7.10;99.90;;;;;;2160385;27;20002;-73
2024/04/16 05:25:02;;;;;;;;;;;7.10;99.90;;;;;;2160067;27;20643;-72
2024/04/16 05:26:03;;;;;;;;;;;7.10;99.90;;;;;;2158852;27;19948;-74
2024/04/16 05:27:03;;;;;;;;;;;7.10;99.90;;;;;;2157939;27;19938;-73
2024/04/16 05:28:04;;;;;;;;;;;7.20;99.90;;;;;;2159480;27;19967;-72
2024/04/16 05:29:05;;;;;;;;;;;7.20;99.90;;;;;;2171916;27;19941;-71
2024/04/16 05:30:05;;;;;;;;;;;7.20;99.90;;;;;;2159841;27;19947;-74
2024/04/16 05:31:06;;;;;;;;;;;7.20;99.90;;;;;;2150974;27;19967;-74
2024/04/16 05:32:10;;;;;;;;;;;7.20;99.90;;;;;;2159341;27;20275;-72
2024/04/16 05:33:11;;;;;;;;;;;7.20;99.90;;;;;;2167235;27;20466;-72
2024/04/16 05:34:11;;;;;;;;;;;7.20;99.90;;;;;;2168274;27;19975;-73
2024/04/16 05:35:12;;;;;;;;;;;7.20;99.90;;;;;;2160774;27;19940;-73
2024/04/16 05:36:12;;;;;;;;;;;7.30;99.90;;;;;;2171780;27;19931;-73
2024/04/16 05:37:13;;;;;;;;;;;7.30;99.90;;;;;;2166607;27;19939;-72
2024/04/16 05:38:13;;;;;;;;;;;7.40;99.90;;;;;;2159549;27;19943;-71
2024/04/16 05:39:14;;;;;;;;;;;7.50;99.90;;;;;;2159418;27;20336;-72
2024/04/16 05:40:16;;;;;;;;;;;7.60;99.90;;;;;;2160223;27;19932;-73
2024/04/16 05:41:17;;;;;;;;;;;7.60;99.90;;;;;;2167141;27;19940;-73
2024/04/16 05:42:18;;;;;;;;;;;7.70;99.90;;;;;;2165916;27;20310;-73
2024/04/16 05:43:18;;;;;;;;;;;7.80;99.90;;;;;;2160103;27;19932;-74
2024/04/16 05:44:19;;;;;;;;;;;7.70;99.90;;;;;;2160309;27;20304;-72
2024/04/16 05:45:19;;;;;;;;;;;7.80;99.90;;;;;;2154262;27;19939;-72
2024/04/16 05:46:19;;;;;;;;;;;7.80;99.90;;;;;;2155610;27;19980;-70
2024/04/16 05:47:20;;;;;;;;;;;7.90;99.90;;;;;;2159597;27;20227;-73
2024/04/16 05:48:21;;;;;;;;;;;7.90;99.90;;;;;;2154520;27;19938;-74
2024/04/16 05:49:21;;;;;;;;;;;7.90;99.90;;;;;;2153388;27;19932;-71
2024/04/16 05:50:22;;;;;;;;;;;7.90;99.90;;;;;;2159409;27;20061;-73
2024/04/16 05:51:22;;;;;;;;;;;7.90;99.90;;;;;;2154426;27;20422;-72
2024/04/16 05:52:23;;;;;;;;;;;7.90;99.90;;;;;;2163174;27;20002;-73
2024/04/16 05:53:23;;;;;;;;;;;7.90;99.90;;;;;;2145423;27;20382;-72
2024/04/16 05:54:24;;;;;;;;;;;7.90;99.90;;;;;;2157467;27;20535;-73
2024/04/16 05:55:24;;;;;;;;;;;7.90;99.90;;;;;;2146662;27;19943;-73
2024/04/16 05:56:25;;;;;;;;;;;7.90;99.90;;;;;;2163343;27;19935;-72
2024/04/16 05:57:26;;;;;;;;;;;7.90;99.90;;;;;;2158477;27;20167;-73
2024/04/16 05:58:27;;;;;;;;;;;7.90;99.90;;;;;;2155067;27;20405;-71
2024/04/16 05:59:28;;;;;;;;;;;7.90;99.90;;;;;;2147320;27;20021;-73
2024/04/16 06:00:28;;;;;;;;;;;7.90;99.90;;;;;;2150795;27;19944;-72